Shakespeare, Alabama
Current Conditions -  °F | °C
As of 2:58 PM on Wednesday 17 Dec 2014 (Local Time) from KMXF Reporting Station
Clear Clear  
Wind Chill: 57°   Ceiling: Unl
Heat Index: 57°   Visibility: 10mi
Dew Point: 38°   Wind: 8mph
Humidity: 49%   Direction: 310°NW
Pressure: 30.17"   Gusts: NA
Location:  32.3665°N, 86.2999°W
Report Text: KMXF 172058Z AUTO 31007KT 10SM CLR 14/04 A3017 RMK AO2 SLP220 T01410036 55018
Loading
Personal Weather Stations






























Interactive Weather Map New forecast layout! Learn more

10-Day Weather Forecast

Advertisements
Track Severe Weather on mobile